createdAt,value
2023-04-16T00:00:55.285Z,100794.09
2023-04-16T00:03:23.961Z,100793.81
2023-04-16T00:05:51.697Z,100793.28
2023-04-16T00:08:19.599Z,100793.28
2023-04-16T00:10:47.284Z,100796.81
2023-04-16T00:13:14.935Z,100799.28
2023-04-16T00:15:42.613Z,100794.09
2023-04-16T00:18:11.646Z,100794.63
2023-04-16T00:20:39.339Z,100795.16
2023-04-16T00:23:07.015Z,100796.81
2023-04-16T00:25:34.654Z,100797.06
2023-04-16T00:28:02.286Z,100801.44
2023-04-16T00:30:29.943Z,100801.44
2023-04-16T00:32:57.649Z,100795.97
2023-04-16T00:35:26.725Z,100794.63
2023-04-16T00:37:54.366Z,100794.63
2023-04-16T00:40:22.157Z,100799.28
2023-04-16T00:42:49.783Z,100803.94
2023-04-16T00:45:17.494Z,100794.63
2023-04-16T00:47:45.217Z,100804.47
2023-04-16T00:50:13.230Z,100806.41
2023-04-16T00:52:42.296Z,100799.00
2023-04-16T00:55:13.238Z,100798.19
2023-04-16T00:57:41.086Z,100807.50
2023-04-16T01:00:09.792Z,100800.09
2023-04-16T01:02:37.759Z,100806.13
2023-04-16T01:05:06.477Z,100814.34
2023-04-16T01:07:34.118Z,100813.25
2023-04-16T01:10:03.613Z,100808.31
2023-04-16T01:12:32.480Z,100807.78
2023-04-16T01:15:00.662Z,100815.19
2023-04-16T01:17:28.375Z,100820.38
2023-04-16T01:19:59.774Z,100818.47
2023-04-16T01:22:29.120Z,100821.22
2023-04-16T01:24:56.873Z,100822.00
2023-04-16T01:27:24.478Z,100819.28
2023-04-16T01:29:52.298Z,100832.41
2023-04-16T01:32:19.991Z,100822.84
2023-04-16T01:34:47.670Z,100825.03
2023-04-16T01:37:15.703Z,100822.56
2023-04-16T01:39:44.677Z,100829.41
2023-04-16T01:42:12.271Z,100826.69
2023-04-16T01:44:39.906Z,100825.88
2023-04-16T01:47:07.826Z,100832.72
2023-04-16T01:49:36.380Z,100828.03
2023-04-16T01:52:04.001Z,100829.44
2023-04-16T01:54:31.820Z,100837.91
2023-04-16T01:57:01.703Z,100831.31
2023-04-16T01:59:29.371Z,100837.09
2023-04-16T02:01:57.160Z,100839.81
2023-04-16T02:04:24.892Z,100839.28
2023-04-16T02:06:52.510Z,100838.19
2023-04-16T02:09:20.123Z,100842.00
2023-04-16T02:11:47.725Z,100836.00
2023-04-16T02:14:16.739Z,100840.91
2023-04-16T02:16:44.436Z,100839.56
2023-04-16T02:19:12.157Z,100848.84
2023-04-16T02:21:39.796Z,100848.28
2023-04-16T02:24:07.463Z,100841.19
2023-04-16T02:26:35.116Z,100845.06
2023-04-16T02:29:03.002Z,100847.50
2023-04-16T02:31:32.156Z,100843.34
2023-04-16T02:34:00.176Z,100848.03
2023-04-16T02:36:27.859Z,100855.16
2023-04-16T02:38:55.494Z,100848.84
2023-04-16T02:41:23.170Z,100847.19
2023-04-16T02:43:50.883Z,100851.31
2023-04-16T02:46:18.673Z,100851.56
2023-04-16T02:48:47.664Z,100853.78
2023-04-16T02:51:15.385Z,100860.34
2023-04-16T02:53:45.818Z,100863.38
2023-04-16T02:56:13.696Z,100859.53
2023-04-16T02:58:41.399Z,100861.97
2023-04-16T03:01:09.052Z,100859.78
2023-04-16T03:03:36.784Z,100857.88
2023-04-16T03:06:05.973Z,100869.09
2023-04-16T03:08:33.667Z,100859.25
2023-04-16T03:11:01.510Z,100869.94
2023-04-16T03:13:29.154Z,100862.81
2023-04-16T03:15:56.855Z,100872.94
2023-04-16T03:18:24.542Z,100871.28
2023-04-16T03:20:53.149Z,100872.69
2023-04-16T03:23:22.191Z,100874.88
2023-04-16T03:25:49.870Z,100882.78
2023-04-16T03:28:17.584Z,100878.94
2023-04-16T03:30:51.532Z,100887.97
2023-04-16T03:33:19.421Z,100883.84
2023-04-16T03:35:47.169Z,100887.38
2023-04-16T03:38:14.869Z,100881.88
2023-04-16T03:40:43.875Z,100886.50
2023-04-16T03:43:11.458Z,100887.91
2023-04-16T03:45:45.138Z,100891.41
2023-04-16T03:48:12.985Z,100900.47
2023-04-16T03:50:41.196Z,100897.13
2023-04-16T03:53:08.873Z,100899.84
2023-04-16T03:55:36.906Z,100903.97
2023-04-16T03:58:05.947Z,100907.25
2023-04-16T04:00:33.819Z,100912.41
2023-04-16T04:03:01.690Z,100902.09
2023-04-16T04:05:29.518Z,100905.63
2023-04-16T04:07:57.126Z,100911.63
2023-04-16T04:10:24.820Z,100908.91
2023-04-16T04:12:52.479Z,100925.56
2023-04-16T04:15:21.556Z,100922.56
2023-04-16T04:17:49.239Z,100929.38
2023-04-16T04:20:17.018Z,100927.16
2023-04-16T04:22:44.699Z,100930.44
2023-04-16T04:25:12.410Z,100926.03
2023-04-16T04:27:40.115Z,100928.25
2023-04-16T04:30:08.994Z,100926.63
2023-04-16T04:32:38.011Z,100924.97
2023-04-16T04:35:06.166Z,100923.31
2023-04-16T04:37:33.804Z,100930.13
2023-04-16T04:40:01.508Z,100929.34
2023-04-16T04:42:29.161Z,100934.81
2023-04-16T04:44:56.819Z,100936.72
2023-04-16T04:47:24.586Z,100941.38
2023-04-16T04:49:53.707Z,100939.72
2023-04-16T04:52:21.507Z,100941.91
2023-04-16T04:54:49.242Z,100947.41
2023-04-16T04:57:16.912Z,100944.34
2023-04-16T04:59:44.567Z,100947.94
2023-04-16T05:02:12.344Z,100956.13
2023-04-16T05:04:40.099Z,100948.50
2023-04-16T05:07:09.173Z,100957.50
2023-04-16T05:09:36.853Z,100952.88
2023-04-16T05:12:05.152Z,100958.59
2023-04-16T05:14:32.755Z,100966.53
2023-04-16T05:17:00.471Z,100964.88
2023-04-16T05:19:28.387Z,100969.19
2023-04-16T05:21:56.174Z,100972.75
2023-04-16T05:24:25.382Z,100976.31
2023-04-16T05:26:53.017Z,100982.94
2023-04-16T05:29:20.777Z,100983.47
2023-04-16T05:31:48.400Z,100981.53
2023-04-16T05:34:16.174Z,100981.78
2023-04-16T05:36:43.936Z,100983.47
2023-04-16T05:39:11.827Z,100985.59
2023-04-16T05:41:40.921Z,100987.84
2023-04-16T05:44:08.574Z,100992.47
2023-04-16T05:46:36.340Z,100991.38
2023-04-16T05:49:03.981Z,100997.63
2023-04-16T05:51:32.364Z,100998.13
2023-04-16T05:53:59.994Z,101002.28
2023-04-16T05:56:27.861Z,101000.84
2023-04-16T05:58:56.896Z,100999.28
2023-04-16T06:01:24.586Z,101004.81
2023-04-16T06:03:52.258Z,100996.63
2023-04-16T06:06:20.023Z,101006.75
2023-04-16T06:08:47.776Z,101015.75
2023-04-16T06:11:15.727Z,101001.53
2023-04-16T06:13:43.788Z,101005.91
2023-04-16T06:16:12.839Z,101010.56
2023-04-16T06:18:40.572Z,101020.44
2023-04-16T06:21:08.300Z,101013.88
2023-04-16T06:23:35.971Z,101020.50
2023-04-16T06:26:03.616Z,101024.56
2023-04-16T06:28:31.286Z,101027.88
2023-04-16T06:30:59.035Z,101027.06
2023-04-16T06:33:28.102Z,101033.34
2023-04-16T06:35:56.565Z,101027.34
2023-04-16T06:38:24.225Z,101024.91
2023-04-16T06:40:51.918Z,101030.63
2023-04-16T06:43:19.826Z,101029.00
2023-04-16T06:45:47.452Z,101026.25
2023-04-16T06:48:15.410Z,101033.66
2023-04-16T06:50:44.497Z,101033.34
2023-04-16T06:53:12.304Z,101039.94
2023-04-16T06:55:39.954Z,101034.47
2023-04-16T06:58:07.577Z,101037.53
2023-04-16T07:00:35.429Z,101044.94
2023-04-16T07:03:03.318Z,101045.44
2023-04-16T07:05:31.650Z,101043.03
2023-04-16T07:08:00.924Z,101042.50
2023-04-16T07:10:28.586Z,101050.97
2023-04-16T07:12:56.277Z,101055.38
2023-04-16T07:15:24.010Z,101054.28
2023-04-16T07:17:51.764Z,101063.06
2023-04-16T07:20:19.551Z,101054.06
2023-04-16T07:22:47.383Z,101063.31
2023-04-16T07:25:16.394Z,101060.31
2023-04-16T07:27:44.104Z,101065.25
2023-04-16T07:30:12.280Z,101065.81
2023-04-16T07:32:39.961Z,101069.91
2023-04-16T07:35:08.440Z,101071.84
2023-04-16T07:37:36.042Z,101073.25
2023-04-16T07:40:04.148Z,101076.28
2023-04-16T07:42:33.245Z,101079.53
2023-04-16T07:45:00.883Z,101079.28
2023-04-16T07:47:28.658Z,101083.69
2023-04-16T07:49:56.351Z,101085.91
2023-04-16T07:52:23.984Z,101088.38
2023-04-16T07:54:52.030Z,101089.19
2023-04-16T07:57:19.755Z,101084.25
2023-04-16T07:59:48.892Z,101095.50
2023-04-16T08:02:17.579Z,101099.63
2023-04-16T08:04:45.591Z,101097.63
2023-04-16T08:07:13.401Z,101100.09
2023-04-16T08:09:48.904Z,101100.09
2023-04-16T08:12:17.353Z,101102.53
2023-04-16T08:14:45.037Z,101104.47
2023-04-16T08:17:14.511Z,101099.78
2023-04-16T08:19:43.792Z,101109.94
2023-04-16T08:22:11.735Z,101111.59
2023-04-16T08:24:39.428Z,101114.03
2023-04-16T08:27:17.941Z,101114.91
2023-04-16T08:29:46.651Z,101117.16
2023-04-16T08:32:15.773Z,101120.78
2023-04-16T08:34:43.505Z,101121.06
2023-04-16T08:37:11.204Z,101126.03
2023-04-16T08:39:38.890Z,101129.00
2023-04-16T08:42:11.128Z,101129.81
2023-04-16T08:44:44.732Z,101131.94
2023-04-16T08:47:16.676Z,101139.66
2023-04-16T08:49:45.818Z,101143.75
2023-04-16T08:52:19.401Z,101135.78
2023-04-16T08:54:56.328Z,101140.44
2023-04-16T08:57:27.334Z,101143.69
2023-04-16T08:59:56.889Z,101141.31
2023-04-16T09:02:27.466Z,101139.91
2023-04-16T09:04:56.493Z,101143.19
2023-04-16T09:07:25.199Z,101149.47
2023-04-16T09:09:54.838Z,101148.69
2023-04-16T09:12:24.694Z,101152.31
2023-04-16T09:14:52.550Z,101153.19
2023-04-16T09:17:20.802Z,101159.25
2023-04-16T09:19:49.847Z,101156.00
2023-04-16T09:22:17.893Z,101159.59
2023-04-16T09:24:45.647Z,101164.06
2023-04-16T09:27:13.668Z,101165.97
2023-04-16T09:29:42.408Z,101173.88
2023-04-16T09:32:11.633Z,101167.28
2023-04-16T09:34:59.800Z,101169.75
2023-04-16T09:37:29.658Z,101179.13
2023-04-16T09:39:58.738Z,101174.44
2023-04-16T09:42:28.660Z,101177.75
2023-04-16T09:44:59.400Z,101182.75
2023-04-16T09:47:40.971Z,101185.78
2023-04-16T09:50:12.615Z,101184.97
2023-04-16T09:52:41.043Z,101194.81
2023-04-16T09:55:09.251Z,101185.50
2023-04-16T09:57:39.013Z,101182.94
2023-04-16T10:00:10.266Z,101185.41
2023-04-16T10:02:42.817Z,101197.97
2023-04-16T10:05:18.671Z,101195.22
2023-04-16T10:07:48.641Z,101189.72
2023-04-16T10:10:16.656Z,101196.56
2023-04-16T10:12:44.598Z,101195.22
2023-04-16T10:15:12.621Z,101192.72
2023-04-16T10:17:40.647Z,101196.59
2023-04-16T10:20:09.371Z,101196.59
2023-04-16T10:22:38.886Z,101200.97
2023-04-16T10:25:08.823Z,101204.31
2023-04-16T10:27:38.109Z,101200.50
2023-04-16T10:30:08.298Z,101198.69
2023-04-16T10:32:37.966Z,101191.06
2023-04-16T10:35:06.817Z,101200.66
2023-04-16T10:37:34.554Z,101201.22
2023-04-16T10:40:23.492Z,101199.34
2023-04-16T10:42:56.024Z,101205.09
2023-04-16T10:45:28.452Z,101211.09
2023-04-16T10:47:57.701Z,101213.53
2023-04-16T10:50:25.626Z,101207.50
2023-04-16T10:53:21.080Z,101214.28
2023-04-16T10:56:15.522Z,101213.75
2023-04-16T10:58:43.342Z,101220.06
2023-04-16T11:01:16.402Z,101217.38
2023-04-16T11:03:45.617Z,101222.66
2023-04-16T11:06:16.481Z,101215.84
2023-04-16T11:08:54.096Z,101224.38
2023-04-16T11:11:23.988Z,101218.06
2023-04-16T11:13:56.949Z,101220.56
2023-04-16T11:16:26.299Z,101224.94
2023-04-16T11:18:56.324Z,101221.91
2023-04-16T11:21:25.181Z,101228.00
2023-04-16T11:23:54.421Z,101226.88
2023-04-16T11:26:28.608Z,101224.13
2023-04-16T11:28:57.316Z,101228.28
2023-04-16T11:31:27.084Z,101226.63
2023-04-16T11:33:57.099Z,101229.13
2023-04-16T11:37:06.239Z,101239.81
2023-04-16T11:39:12.802Z,101232.97
2023-04-16T11:41:45.313Z,101240.09
2023-04-16T11:44:23.938Z,101229.69
2023-04-16T11:46:52.471Z,101232.75
2023-04-16T11:49:28.639Z,101236.06
2023-04-16T11:51:56.413Z,101244.84
2023-04-16T11:54:25.672Z,101241.00
2023-04-16T11:56:54.884Z,101233.09
2023-04-16T11:59:24.211Z,101239.38
2023-04-16T12:01:53.214Z,101242.66
2023-04-16T12:04:23.030Z,101249.25
2023-04-16T12:07:06.766Z,101248.41
2023-04-16T12:09:37.864Z,101246.81
2023-04-16T12:12:26.404Z,101253.63
2023-04-16T12:14:56.705Z,101259.38
2023-04-16T12:17:25.094Z,101260.78
2023-04-16T12:19:53.719Z,101265.44
2023-04-16T12:22:28.764Z,101264.03
2023-04-16T12:25:00.868Z,101266.78
2023-04-16T12:27:42.399Z,101264.25
2023-04-16T12:30:10.864Z,101275.19
2023-04-16T12:32:38.710Z,101272.72
2023-04-16T12:35:06.791Z,101280.94
2023-04-16T12:37:35.314Z,101283.13
2023-04-16T12:40:04.726Z,101276.28
2023-04-16T12:42:35.971Z,101279.47
2023-04-16T12:45:05.000Z,101285.19
2023-04-16T12:47:32.851Z,101282.22
2023-04-16T12:50:00.650Z,101290.97
2023-04-16T12:52:28.409Z,101288.47
2023-04-16T12:54:56.087Z,101285.19
2023-04-16T12:57:28.430Z,101291.78
2023-04-16T12:59:58.289Z,101287.34
2023-04-16T13:02:26.856Z,101287.88
2023-04-16T13:04:55.420Z,101294.69
2023-04-16T13:07:24.103Z,101290.38
2023-04-16T13:09:51.816Z,101287.88
2023-04-16T13:12:19.542Z,101295.78
2023-04-16T13:14:47.199Z,101291.41
2023-04-16T13:17:16.287Z,101306.19
2023-04-16T13:19:44.032Z,101298.78
2023-04-16T13:22:11.682Z,101296.59
2023-04-16T13:24:39.433Z,101302.88
2023-04-16T13:27:08.375Z,101300.72
2023-04-16T13:29:36.995Z,101304.53
2023-04-16T13:32:05.383Z,101305.63
2023-04-16T13:34:34.421Z,101303.72
2023-04-16T13:37:02.115Z,101299.03
2023-04-16T13:39:29.812Z,101297.13
2023-04-16T13:41:57.547Z,101299.03
2023-04-16T13:44:25.269Z,101303.69
2023-04-16T13:46:53.824Z,101297.69
2023-04-16T13:49:22.582Z,101296.31
2023-04-16T13:51:51.647Z,101299.59
2023-04-16T13:54:19.319Z,101300.66
2023-04-16T13:56:46.997Z,101293.84
2023-04-16T13:59:16.644Z,101293.31
2023-04-16T14:01:44.343Z,101296.63
2023-04-16T14:04:12.071Z,101295.53
2023-04-16T14:06:39.740Z,101299.41
2023-04-16T14:09:10.597Z,101296.41
2023-04-16T14:11:38.703Z,101301.09
2023-04-16T14:14:06.553Z,101295.91
2023-04-16T14:16:34.353Z,101290.19
2023-04-16T14:19:02.143Z,101295.41
2023-04-16T14:21:29.823Z,101297.34
2023-04-16T14:23:57.484Z,101295.94
2023-04-16T14:26:26.640Z,101297.59
2023-04-16T14:28:54.326Z,101303.38
2023-04-16T14:31:22.070Z,101305.59
2023-04-16T14:33:49.748Z,101306.16
2023-04-16T14:36:17.457Z,101310.50
2023-04-16T14:38:45.247Z,101306.63
2023-04-16T14:41:13.861Z,101311.25
2023-04-16T14:43:44.242Z,101316.41
2023-04-16T14:46:11.953Z,101307.06
2023-04-16T14:48:39.600Z,101323.50
2023-04-16T14:51:07.345Z,101314.75
2023-04-16T14:53:36.464Z,101319.47
2023-04-16T14:56:04.252Z,101320.81
2023-04-16T14:58:32.115Z,101319.19
2023-04-16T15:01:01.147Z,101326.03
2023-04-16T15:03:29.079Z,101329.00
2023-04-16T15:05:57.072Z,101331.19
2023-04-16T15:08:25.036Z,101323.19
2023-04-16T15:10:52.929Z,101330.56
2023-04-16T15:13:20.616Z,101333.56
2023-04-16T15:15:48.629Z,101328.84
2023-04-16T15:18:17.790Z,101338.22
2023-04-16T15:20:45.964Z,101331.56
2023-04-16T15:23:13.622Z,101337.88
2023-04-16T15:25:41.554Z,101333.19
2023-04-16T15:28:09.266Z,101340.34
2023-04-16T15:30:38.318Z,101336.25
2023-04-16T15:33:06.037Z,101336.50
2023-04-16T15:35:38.809Z,101339.00
2023-04-16T15:38:06.502Z,101339.31
2023-04-16T15:40:34.304Z,101349.44
2023-04-16T15:43:02.021Z,101338.47
2023-04-16T15:45:29.788Z,101353.59
2023-04-16T15:47:57.463Z,101347.78
2023-04-16T15:50:26.455Z,101354.41
2023-04-16T15:52:55.470Z,101351.34
2023-04-16T15:55:23.429Z,101359.00
2023-04-16T15:57:51.307Z,101357.91
2023-04-16T16:00:19.120Z,101359.00
2023-04-16T16:02:48.015Z,101360.38
2023-04-16T16:05:17.009Z,101356.72
2023-04-16T16:07:44.864Z,101365.47
2023-04-16T16:10:14.092Z,101367.66
2023-04-16T16:12:42.131Z,101368.41
2023-04-16T16:15:10.967Z,101367.31
2023-04-16T16:17:38.974Z,101363.81
2023-04-16T16:20:10.253Z,101368.75
2023-04-16T16:22:39.081Z,101365.69
2023-04-16T16:25:08.008Z,101368.16
2023-04-16T16:27:37.179Z,101366.53
2023-04-16T16:30:07.240Z,101368.97
2023-04-16T16:32:35.141Z,101374.22
2023-04-16T16:35:02.887Z,101370.34
2023-04-16T16:37:30.503Z,101371.91
2023-04-16T16:39:58.153Z,101370.53
2023-04-16T16:42:26.564Z,101380.03
2023-04-16T16:44:57.430Z,101384.19
2023-04-16T16:47:25.419Z,101386.94
2023-04-16T16:49:54.588Z,101386.03
2023-04-16T16:52:23.902Z,101386.28
2023-04-16T16:54:51.618Z,101386.78
2023-04-16T16:57:19.876Z,101384.63
2023-04-16T16:59:48.385Z,101391.75
2023-04-16T17:02:17.599Z,101391.19
2023-04-16T17:04:45.416Z,101395.19
2023-04-16T17:07:13.054Z,101394.38
2023-04-16T17:09:40.778Z,101396.03
2023-04-16T17:12:08.506Z,101402.88
2023-04-16T17:14:36.241Z,101405.84
2023-04-16T17:17:03.924Z,101411.31
2023-04-16T17:19:33.070Z,101415.38
2023-04-16T17:22:00.717Z,101417.56
2023-04-16T17:24:28.432Z,101416.97
2023-04-16T17:26:56.330Z,101415.56
2023-04-16T17:29:26.038Z,101418.88
2023-04-16T17:31:54.223Z,101420.81
2023-04-16T17:34:22.290Z,101424.88
2023-04-16T17:36:51.459Z,101421.63
2023-04-16T17:39:19.126Z,101429.53
2023-04-16T17:41:46.834Z,101436.84
2023-04-16T17:44:14.596Z,101433.00
2023-04-16T17:46:42.403Z,101443.38
2023-04-16T17:49:10.118Z,101443.38
2023-04-16T17:51:37.758Z,101449.03
2023-04-16T17:54:07.177Z,101446.31
2023-04-16T17:56:34.880Z,101451.94
2023-04-16T17:59:02.561Z,101449.22
2023-04-16T18:01:30.718Z,101452.72
2023-04-16T18:03:58.649Z,101455.69
2023-04-16T18:06:27.493Z,101457.03
2023-04-16T18:08:55.387Z,101458.38
2023-04-16T18:11:24.383Z,101465.50
2023-04-16T18:13:53.701Z,101465.72
2023-04-16T18:16:22.397Z,101464.56
2023-04-16T18:18:50.326Z,101470.31
2023-04-16T18:21:17.929Z,101473.88
2023-04-16T18:23:45.796Z,101479.84
2023-04-16T18:26:13.452Z,101482.06
2023-04-16T18:28:42.478Z,101488.13
2023-04-16T18:31:10.827Z,101493.53
2023-04-16T18:33:55.803Z,101492.38
2023-04-16T18:36:24.810Z,101489.63
2023-04-16T18:39:00.168Z,101502.47
2023-04-16T18:41:30.037Z,101500.50
2023-04-16T18:43:59.470Z,101506.69
2023-04-16T18:46:27.817Z,101505.03
2023-04-16T18:48:55.650Z,101505.63
2023-04-16T18:51:23.615Z,101514.88
2023-04-16T18:53:51.565Z,101507.41
2023-04-16T18:56:19.426Z,101517.53
2023-04-16T18:58:47.968Z,101515.88
2023-04-16T19:01:17.869Z,101518.00
2023-04-16T19:03:46.342Z,101520.00
2023-04-16T19:06:14.072Z,101511.81
2023-04-16T19:08:42.257Z,101513.56
2023-04-16T19:11:09.929Z,101521.09
2023-04-16T19:13:38.562Z,101517.69
2023-04-16T19:16:11.780Z,101520.66
2023-04-16T19:18:40.960Z,101519.00
2023-04-16T19:21:10.716Z,101515.19
2023-04-16T19:23:38.592Z,101516.34
2023-04-16T19:26:06.645Z,101518.84
2023-04-16T19:28:34.362Z,101521.59
2023-04-16T19:31:02.458Z,101524.56
2023-04-16T19:33:30.133Z,101523.16
2023-04-16T19:36:00.158Z,101530.50
2023-04-16T19:38:28.203Z,101528.28
2023-04-16T19:40:56.226Z,101531.28
2023-04-16T19:43:24.107Z,101530.78
2023-04-16T19:45:53.792Z,101533.25
2023-04-16T19:48:21.696Z,101525.53
2023-04-16T19:50:49.517Z,101532.44
2023-04-16T19:53:18.741Z,101536.97
2023-04-16T19:55:46.897Z,101532.34
2023-04-16T19:58:14.630Z,101531.00
2023-04-16T20:00:42.620Z,101534.34
2023-04-16T20:03:10.787Z,101532.09
2023-04-16T20:05:38.510Z,101534.59
2023-04-16T20:08:07.069Z,101530.78
2023-04-16T20:10:36.109Z,101538.72
2023-04-16T20:13:05.270Z,101537.06
2023-04-16T20:15:33.263Z,101536.25
2023-04-16T20:18:00.899Z,101536.75
2023-04-16T20:20:28.951Z,101548.75
2023-04-16T20:22:56.791Z,101548.91
2023-04-16T20:25:26.464Z,101537.13
2023-04-16T20:27:55.483Z,101541.19
2023-04-16T20:30:29.206Z,101545.25
2023-04-16T20:32:56.975Z,101533.31
2023-04-16T20:35:25.000Z,101543.94
2023-04-16T20:37:52.652Z,101544.25
2023-04-16T20:40:21.115Z,101549.41
2023-04-16T20:42:51.088Z,101554.88
2023-04-16T20:45:20.396Z,101551.28
2023-04-16T20:47:48.423Z,101550.81
2023-04-16T20:50:16.539Z,101558.41
2023-04-16T20:52:44.419Z,101553.78
2023-04-16T20:55:13.029Z,101556.63
2023-04-16T20:57:40.724Z,101561.41
2023-04-16T21:00:12.357Z,101568.06
2023-04-16T21:02:41.576Z,101558.69
2023-04-16T21:05:13.993Z,101561.25
2023-04-16T21:07:42.223Z,101567.69
2023-04-16T21:10:11.051Z,101563.78
2023-04-16T21:12:38.861Z,101565.69
2023-04-16T21:15:07.540Z,101563.44
2023-04-16T21:17:35.257Z,101563.44
2023-04-16T21:20:07.122Z,101567.25
2023-04-16T21:22:34.801Z,101567.03
2023-04-16T21:25:03.093Z,101567.84
2023-04-16T21:27:30.824Z,101571.06
2023-04-16T21:29:58.679Z,101567.97
2023-04-16T21:32:26.408Z,101567.50
2023-04-16T21:34:54.034Z,101571.47
2023-04-16T21:37:23.411Z,101566.13
2023-04-16T21:39:51.102Z,101567.19
2023-04-16T21:42:19.123Z,101566.72
2023-04-16T21:44:46.849Z,101563.41
2023-04-16T21:47:14.626Z,101564.47
2023-04-16T21:49:43.106Z,101571.38
2023-04-16T21:52:14.125Z,101569.75
2023-04-16T21:54:43.820Z,101565.31
2023-04-16T21:57:11.692Z,101564.41
2023-04-16T21:59:39.828Z,101569.72
2023-04-16T22:02:08.172Z,101564.75
2023-04-16T22:04:38.405Z,101568.22
2023-04-16T22:07:09.357Z,101566.81
2023-04-16T22:09:37.127Z,101572.25
2023-04-16T22:12:11.156Z,101574.19
2023-04-16T22:14:44.097Z,101576.28
2023-04-16T22:17:17.697Z,101573.34
2023-04-16T22:19:45.501Z,101583.91
2023-04-16T22:22:13.718Z,101582.38
2023-04-16T22:24:41.419Z,101581.78
2023-04-16T22:27:10.811Z,101578.13
2023-04-16T22:29:38.432Z,101586.31
2023-04-16T22:32:07.871Z,101581.78
2023-04-16T22:34:35.906Z,101579.19
2023-04-16T22:37:03.738Z,101583.81
2023-04-16T22:39:31.979Z,101586.06
2023-04-16T22:41:59.675Z,101582.72
2023-04-16T22:44:29.065Z,101589.03
2023-04-16T22:46:56.704Z,101582.25
2023-04-16T22:49:24.411Z,101586.44
2023-04-16T22:51:52.111Z,101591.03
2023-04-16T22:54:19.695Z,101591.19
2023-04-16T22:56:48.805Z,101592.00
2023-04-16T22:59:16.444Z,101589.84
2023-04-16T23:01:46.134Z,101578.81
2023-04-16T23:04:13.858Z,101589.84
2023-04-16T23:06:42.025Z,101582.16
2023-04-16T23:09:10.886Z,101581.78
2023-04-16T23:11:38.729Z,101589.16
2023-04-16T23:14:06.675Z,101580.38
2023-04-16T23:16:34.359Z,101587.84
2023-04-16T23:19:03.850Z,101587.72
2023-04-16T23:21:32.401Z,101589.97
2023-04-16T23:24:00.125Z,101589.38
2023-04-16T23:26:28.141Z,101586.31
2023-04-16T23:28:56.952Z,101588.69
2023-04-16T23:31:25.252Z,101593.56
2023-04-16T23:33:54.020Z,101588.56
2023-04-16T23:36:23.051Z,101594.03
2023-04-16T23:38:51.002Z,101585.72
2023-04-16T23:41:18.603Z,101594.50
2023-04-16T23:43:47.101Z,101597.72
2023-04-16T23:46:14.805Z,101587.59
2023-04-16T23:48:42.443Z,101591.88
2023-04-16T23:51:10.504Z,101592.09
2023-04-16T23:53:40.671Z,101587.13
2023-04-16T23:56:11.434Z,101585.25
2023-04-16T23:58:39.162Z,101590.22
